Time;durP1;ratioP1;P1;durP2;ratioP2;P2;SDS_P1;SDS_P2;PMS_P1;PMS_P2;Temp;Humidity;BMP_temperature;BMP_pressure;BME280_temperature;BME280_humidity;BME280_pressure;Samples;Min_cycle;Max_cycle;Signal;HPM_P1;HPM_P2
2022/09/14 00:01:30;;;;;;;8.98;3.67;;;14.00;99.90;;;;;;4903031;29;20063;-79
2022/09/14 00:04:02;;;;;;;7.50;3.20;;;14.00;99.90;;;;;;4916626;29;20079;-79
2022/09/14 00:06:29;;;;;;;7.90;2.90;;;14.00;99.90;;;;;;4932376;29;20042;-80
2022/09/14 00:08:57;;;;;;;5.22;2.47;;;14.00;99.90;;;;;;4927528;29;20099;-80
2022/09/14 00:11:25;;;;;;;7.05;2.40;;;14.00;99.90;;;;;;4929986;29;20037;-80
2022/09/14 00:13:51;;;;;;;4.47;2.67;;;14.00;99.90;;;;;;4916393;29;20040;-82
2022/09/14 00:16:25;;;;;;;4.07;2.13;;;14.00;99.90;;;;;;4913989;29;20122;-81
2022/09/14 00:18:56;;;;;;;4.25;2.05;;;14.00;99.90;;;;;;4928136;29;20048;-82
2022/09/14 00:21:23;;;;;;;6.20;2.30;;;13.90;99.90;;;;;;4933428;29;20050;-81
2022/09/14 00:23:49;;;;;;;4.97;2.30;;;13.90;99.90;;;;;;4916842;29;20082;-81
2022/09/14 00:26:20;;;;;;;5.93;2.47;;;13.90;99.90;;;;;;4917074;29;20043;-80
2022/09/14 00:28:56;;;;;;;6.60;2.90;;;13.90;99.90;;;;;;4928811;29;20052;-81
2022/09/14 00:31:23;;;;;;;5.05;2.70;;;13.90;99.90;;;;;;4920996;29;20043;-83
2022/09/14 00:33:50;;;;;;;5.90;2.58;;;13.90;99.90;;;;;;4903824;29;20044;-82
2022/09/14 00:36:19;;;;;;;7.65;3.00;;;13.90;99.90;;;;;;4932177;29;20039;-82
2022/09/14 00:38:45;;;;;;;7.82;3.03;;;13.80;99.90;;;;;;4932521;29;20044;-83
2022/09/14 00:41:24;;;;;;;4.50;3.13;;;13.90;99.90;;;;;;4897118;29;20036;-82
2022/09/14 00:44:01;;;;;;;6.57;3.70;;;13.90;99.90;;;;;;4915798;29;20048;-81
2022/09/14 00:46:29;;;;;;;5.22;3.35;;;14.00;99.90;;;;;;4936229;29;20043;-81
2022/09/14 00:48:58;;;;;;;4.47;3.42;;;13.90;99.90;;;;;;4916424;29;20371;-80
2022/09/14 00:51:25;;;;;;;6.38;3.42;;;13.90;99.90;;;;;;4902905;29;20044;-81
2022/09/14 00:53:51;;;;;;;7.25;3.78;;;14.00;99.90;;;;;;4917740;29;20043;-81
2022/09/14 00:56:17;;;;;;;6.15;3.13;;;14.00;99.90;;;;;;4905971;29;20493;-81
2022/09/14 00:58:46;;;;;;;7.22;3.20;;;14.00;99.90;;;;;;4903577;29;20466;-81
2022/09/14 01:01:12;;;;;;;6.22;3.17;;;14.10;99.90;;;;;;4916364;29;20044;-82
2022/09/14 01:03:38;;;;;;;8.15;3.70;;;14.00;99.90;;;;;;4925537;29;20055;-83
2022/09/14 01:06:36;;;;;;;8.43;3.90;;;14.10;99.90;;;;;;4929395;29;20059;-82
2022/09/14 01:09:27;;;;;;;6.88;3.17;;;14.10;99.90;;;;;;4925687;29;20044;-82
2022/09/14 01:11:56;;;;;;;6.10;3.70;;;14.10;99.90;;;;;;4920643;29;20047;-82
2022/09/14 01:14:38;;;;;;;9.43;3.97;;;14.10;99.90;;;;;;4920427;29;20043;-81
2022/09/14 01:17:35;;;;;;;8.18;3.72;;;14.10;99.90;;;;;;4925107;29;20047;-81
2022/09/14 01:20:27;;;;;;;10.95;3.22;;;14.10;99.90;;;;;;4935384;29;20043;-82
2022/09/14 01:23:05;;;;;;;6.65;2.92;;;14.10;99.90;;;;;;4920011;29;20049;-81
2022/09/14 01:25:59;;;;;;;6.70;3.25;;;14.10;99.90;;;;;;4916732;29;20040;-84
2022/09/14 01:28:33;;;;;;;7.72;3.13;;;14.10;99.90;;;;;;4901547;29;20036;-82
2022/09/14 01:31:05;;;;;;;4.87;3.13;;;14.10;99.90;;;;;;4929606;29;20039;-82
2022/09/14 01:33:41;;;;;;;7.43;2.80;;;14.20;99.90;;;;;;4920870;29;20306;-81
2022/09/14 01:36:10;;;;;;;3.47;2.20;;;14.30;99.90;;;;;;4911312;29;20127;-82
2022/09/14 01:38:49;;;;;;;8.00;2.88;;;14.30;99.90;;;;;;4933983;29;21034;-82
2022/09/14 01:41:19;;;;;;;7.05;2.70;;;14.30;99.90;;;;;;4911045;29;20055;-82
2022/09/14 01:43:56;;;;;;;5.90;2.28;;;14.30;99.90;;;;;;4927444;29;20039;-83
2022/09/14 01:46:30;;;;;;;4.22;2.60;;;14.30;99.90;;;;;;4918184;29;20102;-81
2022/09/14 01:49:06;;;;;;;4.38;2.70;;;14.40;99.90;;;;;;4898953;29;20095;-82
2022/09/14 01:51:47;;;;;;;7.95;2.85;;;14.40;99.90;;;;;;4923941;29;20032;-82
2022/09/14 01:54:24;;;;;;;5.20;2.50;;;14.40;99.90;;;;;;4924264;29;20533;-81
2022/09/14 01:56:58;;;;;;;7.20;2.90;;;14.30;99.90;;;;;;4916408;29;20044;-81
2022/09/14 01:59:32;;;;;;;6.15;3.42;;;14.40;99.90;;;;;;4911501;29;20043;-82
2022/09/14 02:02:10;;;;;;;8.23;3.30;;;14.40;99.90;;;;;;4908536;29;20133;-82
2022/09/14 02:05:06;;;;;;;6.85;3.50;;;14.40;99.90;;;;;;4900728;29;20043;-83
2022/09/14 02:07:33;;;;;;;6.90;3.40;;;14.40;99.90;;;;;;4901139;29;20497;-81
2022/09/14 02:09:58;;;;;;;5.30;3.00;;;14.40;99.90;;;;;;4908093;29;20915;-82
2022/09/14 02:12:24;;;;;;;10.65;3.53;;;14.40;99.90;;;;;;4896431;29;20072;-82
2022/09/14 02:14:52;;;;;;;6.10;3.10;;;14.40;99.90;;;;;;4882672;29;20043;-82
2022/09/14 02:17:19;;;;;;;7.15;3.28;;;14.40;99.90;;;;;;4878248;29;20040;-83
2022/09/14 02:19:55;;;;;;;6.70;5.07;;;14.40;99.90;;;;;;4899640;29;20448;-82
2022/09/14 02:22:22;;;;;;;5.70;4.35;;;14.40;99.90;;;;;;4900664;29;20050;-83
2022/09/14 02:24:48;;;;;;;4.97;3.80;;;14.40;99.90;;;;;;4892928;29;20048;-83
2022/09/14 02:27:14;;;;;;;8.60;4.22;;;14.50;99.90;;;;;;4899245;29;20036;-82
2022/09/14 02:29:40;;;;;;;6.85;4.65;;;14.50;99.90;;;;;;4884232;29;20424;-83
2022/09/14 02:32:42;;;;;;;9.90;3.78;;;14.50;99.90;;;;;;4884467;29;20035;-83
2022/09/14 02:35:15;;;;;;;7.13;3.30;;;14.50;99.90;;;;;;4896409;29;20055;-82
2022/09/14 02:37:49;;;;;;;6.55;2.90;;;14.40;99.90;;;;;;4869585;29;20051;-81
2022/09/14 02:40:37;;;;;;;3.77;3.00;;;14.40;99.90;;;;;;4880012;29;20075;-82
2022/09/14 02:43:15;;;;;;;5.75;3.05;;;14.40;99.90;;;;;;4890269;29;20347;-83
2022/09/14 02:45:52;;;;;;;6.40;3.20;;;14.40;99.90;;;;;;4915440;29;20074;-81
2022/09/14 02:48:47;;;;;;;5.22;2.63;;;14.40;99.90;;;;;;4884353;29;20106;-81
2022/09/14 02:51:31;;;;;;;7.13;2.90;;;14.40;99.90;;;;;;4891510;29;20035;-81
2022/09/14 02:54:23;;;;;;;8.80;3.70;;;14.40;99.90;;;;;;4899469;29;20048;-81
2022/09/14 02:56:49;;;;;;;9.00;3.90;;;14.40;99.90;;;;;;4895054;29;20442;-81
2022/09/14 02:59:17;;;;;;;7.25;3.70;;;14.40;99.90;;;;;;4884126;29;20086;-82
2022/09/14 03:05:56;;;;;;;5.97;3.20;;;13.10;99.90;;;;;;4885139;29;20063;-83
2022/09/14 03:08:22;;;;;;;5.82;3.40;;;13.30;99.90;;;;;;4893070;29;20064;-82
2022/09/14 03:10:48;;;;;;;5.50;3.03;;;14.30;99.90;;;;;;4913344;29;20040;-83
2022/09/14 03:13:22;;;;;;;5.57;2.85;;;14.40;99.90;;;;;;4884723;29;20054;-82
2022/09/14 03:15:48;;;;;;;3.67;3.00;;;14.40;99.90;;;;;;4911747;29;20123;-84
2022/09/14 03:18:24;;;;;;;5.32;2.95;;;14.40;99.90;;;;;;4915601;29;20913;-83
2022/09/14 03:20:50;;;;;;;4.43;3.13;;;14.40;99.90;;;;;;4929436;29;20064;-83
2022/09/14 03:23:16;;;;;;;7.93;3.65;;;13.80;99.90;;;;;;4925617;29;20500;-83
2022/09/14 03:25:44;;;;;;;6.68;3.30;;;14.40;99.90;;;;;;4885208;29;20047;-83
2022/09/14 03:28:11;;;;;;;8.18;4.72;;;14.40;99.90;;;;;;4910589;29;20717;-84
2022/09/14 03:30:37;;;;;;;5.22;4.72;;;14.50;99.90;;;;;;4929043;29;20075;-83
2022/09/14 03:33:03;;;;;;;7.47;5.25;;;14.40;99.90;;;;;;4919506;29;20040;-83
2022/09/14 03:35:30;;;;;;;6.13;5.10;;;14.40;99.90;;;;;;4886796;29;20067;-83
2022/09/14 03:37:57;;;;;;;13.57;5.30;;;14.50;99.90;;;;;;4913401;29;20054;-83
2022/09/14 03:40:24;;;;;;;7.82;4.45;;;14.50;99.90;;;;;;4931223;29;20498;-83
2022/09/14 03:42:50;;;;;;;8.27;4.70;;;14.40;99.90;;;;;;4930806;29;20142;-82
2022/09/14 03:45:17;;;;;;;11.35;4.65;;;14.40;99.90;;;;;;4932708;29;20048;-83
2022/09/14 03:47:43;;;;;;;7.60;4.90;;;14.50;99.90;;;;;;4883786;29;20044;-83
2022/09/14 03:50:11;;;;;;;10.70;4.90;;;14.50;99.90;;;;;;4915423;29;20122;-83
2022/09/14 03:52:37;;;;;;;10.30;5.18;;;14.50;99.90;;;;;;4917451;29;20079;-80
2022/09/14 03:55:05;;;;;;;9.30;4.60;;;14.50;99.90;;;;;;4909407;29;20043;-80
2022/09/14 03:57:31;;;;;;;6.63;4.57;;;14.60;99.90;;;;;;4893093;29;20050;-81
2022/09/14 03:59:57;;;;;;;9.82;5.45;;;14.50;99.90;;;;;;4932153;29;20055;-81
2022/09/14 04:02:23;;;;;;;10.25;5.10;;;14.60;99.90;;;;;;4902078;29;20058;-81
2022/09/14 04:04:49;;;;;;;8.20;5.10;;;14.50;99.90;;;;;;4896978;29;20048;-81
2022/09/14 04:07:15;;;;;;;7.50;5.60;;;14.60;99.90;;;;;;4914124;29;20040;-81
2022/09/14 04:09:42;;;;;;;9.20;6.57;;;14.50;99.90;;;;;;4918566;29;20045;-81
2022/09/14 04:12:08;;;;;;;8.85;6.32;;;14.60;99.90;;;;;;4926720;29;20058;-80
2022/09/14 04:14:34;;;;;;;10.23;5.57;;;14.50;99.90;;;;;;4927652;29;20043;-80
2022/09/14 04:16:59;;;;;;;8.32;5.63;;;14.50;99.90;;;;;;4897857;29;20135;-82
2022/09/14 04:19:28;;;;;;;8.75;5.63;;;14.60;99.90;;;;;;4899392;29;20043;-83
2022/09/14 04:21:54;;;;;;;8.00;4.68;;;14.60;99.90;;;;;;4905840;29;20043;-83
2022/09/14 04:24:26;;;;;;;11.20;5.70;;;14.50;99.90;;;;;;4918148;29;20103;-83
2022/09/14 04:26:51;;;;;;;10.52;5.65;;;14.60;99.90;;;;;;4914548;29;20036;-82
2022/09/14 04:29:29;;;;;;;6.20;4.93;;;14.90;99.90;;;;;;4914441;29;20047;-82
2022/09/14 04:31:58;;;;;;;11.48;5.40;;;14.70;99.90;;;;;;4932073;29;20040;-83
2022/09/14 04:34:24;;;;;;;7.50;4.32;;;14.60;99.90;;;;;;4902746;29;20401;-82
2022/09/14 04:36:49;;;;;;;7.78;4.25;;;14.60;99.90;;;;;;4905419;29;20044;-81
2022/09/14 04:39:15;;;;;;;8.20;4.68;;;14.60;99.90;;;;;;4889796;29;20046;-83
2022/09/14 04:41:41;;;;;;;6.32;4.57;;;14.70;99.90;;;;;;4939261;29;20126;-82
2022/09/14 04:44:07;;;;;;;5.90;4.20;;;14.70;99.90;;;;;;4934136;29;20560;-82
2022/09/14 04:46:38;;;;;;;7.45;4.63;;;14.60;99.90;;;;;;4887648;29;20040;-81
2022/09/14 04:49:05;;;;;;;7.72;4.57;;;14.70;99.90;;;;;;4932984;29;20059;-82
2022/09/14 04:51:32;;;;;;;8.50;4.57;;;14.70;99.90;;;;;;4918242;29;20044;-83
2022/09/14 04:54:01;;;;;;;8.75;4.75;;;14.80;99.90;;;;;;4912071;29;20044;-83
2022/09/14 04:56:30;;;;;;;7.13;4.38;;;14.70;99.90;;;;;;4933234;29;20488;-83
2022/09/14 04:58:57;;;;;;;10.13;4.22;;;14.80;99.90;;;;;;4917431;29;20516;-84
2022/09/14 05:01:26;;;;;;;7.00;4.28;;;14.80;99.90;;;;;;4901946;29;20122;-82
2022/09/14 05:03:52;;;;;;;5.47;3.30;;;14.90;99.90;;;;;;4886406;29;20446;-82
2022/09/14 05:06:23;;;;;;;4.90;3.72;;;14.80;99.90;;;;;;4886846;29;20040;-82
2022/09/14 05:08:50;;;;;;;6.65;3.70;;;14.80;99.90;;;;;;4885799;29;20077;-82
2022/09/14 05:11:19;;;;;;;5.97;3.78;;;14.70;99.90;;;;;;4900109;29;20032;-81
2022/09/14 05:13:45;;;;;;;8.90;4.25;;;14.80;99.90;;;;;;4871841;29;20048;-82
2022/09/14 05:16:20;;;;;;;7.78;3.55;;;14.80;99.90;;;;;;4901245;29;20036;-82
2022/09/14 05:18:46;;;;;;;9.38;4.22;;;14.80;99.90;;;;;;4873640;29;20085;-81
2022/09/14 05:21:17;;;;;;;7.28;3.88;;;14.70;99.90;;;;;;4894318;29;20045;-82
2022/09/14 05:23:44;;;;;;;6.07;4.03;;;14.80;99.90;;;;;;4885508;29;20123;-81
2022/09/14 05:26:10;;;;;;;5.35;3.65;;;14.80;99.90;;;;;;4901283;29;20370;-82
2022/09/14 05:28:36;;;;;;;6.38;3.40;;;14.80;99.90;;;;;;4898508;29;20438;-82
2022/09/14 05:31:07;;;;;;;8.25;3.30;;;14.80;99.90;;;;;;4897388;29;20059;-82
2022/09/14 05:33:34;;;;;;;6.45;4.07;;;14.80;99.90;;;;;;4885430;29;20044;-82
2022/09/14 05:36:05;;;;;;;6.80;4.15;;;14.90;99.90;;;;;;4900978;29;20119;-82
2022/09/14 05:38:34;;;;;;;10.95;6.22;;;14.90;99.90;;;;;;4917281;29;20044;-82
2022/09/14 05:41:00;;;;;;;6.93;5.00;;;14.90;99.90;;;;;;4884796;29;20468;-81
2022/09/14 05:43:28;;;;;;;8.25;5.97;;;14.90;99.90;;;;;;4888797;29;20127;-81
2022/09/14 05:45:53;;;;;;;10.60;5.70;;;14.90;99.90;;;;;;4885048;29;20499;-80
2022/09/14 05:48:19;;;;;;;12.75;6.25;;;14.90;99.90;;;;;;4900164;29;20048;-80
2022/09/14 05:50:45;;;;;;;11.00;6.65;;;15.00;99.90;;;;;;4882565;29;20508;-80
2022/09/14 05:53:11;;;;;;;9.75;6.05;;;15.00;99.90;;;;;;4883375;29;20060;-82
2022/09/14 05:55:37;;;;;;;7.50;6.03;;;15.00;99.90;;;;;;4905011;29;20707;-82
2022/09/14 05:58:04;;;;;;;7.28;5.47;;;15.00;99.90;;;;;;4901843;29;20040;-81
2022/09/14 06:00:31;;;;;;;7.57;5.93;;;15.00;99.90;;;;;;4885316;29;20071;-81
2022/09/14 06:02:57;;;;;;;11.23;6.22;;;15.10;99.90;;;;;;4910728;29;20052;-82
2022/09/14 06:05:24;;;;;;;7.55;5.88;;;15.00;99.90;;;;;;4928857;29;20504;-81
2022/09/14 06:07:53;;;;;;;8.65;6.10;;;15.00;99.90;;;;;;4915638;29;20102;-81
2022/09/14 06:10:20;;;;;;;12.93;6.60;;;15.10;99.90;;;;;;4924466;29;20074;-82
2022/09/14 06:12:46;;;;;;;11.27;5.93;;;15.20;99.90;;;;;;4945094;29;20196;-81
2022/09/14 06:15:12;;;;;;;7.63;5.40;;;15.10;99.90;;;;;;4922341;29;20602;-81
2022/09/14 06:17:38;;;;;;;12.82;4.75;;;15.10;99.90;;;;;;4927747;29;20110;-82
2022/09/14 06:20:06;;;;;;;9.07;4.57;;;15.20;99.90;;;;;;4930202;29;20175;-81
2022/09/14 06:22:34;;;;;;;9.80;4.47;;;15.30;99.90;;;;;;4935476;29;20129;-82
2022/09/14 06:32:30;;;;;;;9.07;5.70;;;15.50;99.90;;;;;;4844558;29;20039;-83
2022/09/14 06:34:56;;;;;;;4.82;3.90;;;15.50;99.90;;;;;;4861670;29;20132;-81
2022/09/14 06:45:03;;;;;;;9.60;3.17;;;15.70;99.90;;;;;;4819128;29;20053;-82
2022/09/14 06:47:32;;;;;;;5.03;2.53;;;15.90;99.90;;;;;;4783506;29;20411;-81
2022/09/14 06:50:03;;;;;;;6.40;2.80;;;15.90;99.90;;;;;;4806256;29;20049;-82
2022/09/14 06:53:01;;;;;;;7.82;2.60;;;15.00;99.90;;;;;;4905510;29;20051;-81
2022/09/14 07:08:00;;;;;;;7.88;2.85;;;15.10;99.90;;;;;;4924805;29;20054;-81
2022/09/14 07:10:32;;;;;;;6.10;2.90;;;16.30;99.90;;;;;;4928534;29;20493;-80
2022/09/14 07:20:35;;;;;;;6.82;2.67;;;15.30;99.90;;;;;;4919099;29;20131;-82
2022/09/14 07:30:23;;;;;;;5.28;2.15;;;15.50;99.90;;;;;;4896652;29;20038;-80
2022/09/14 07:32:50;;;;;;;4.15;1.85;;;16.60;99.90;;;;;;4897984;29;20043;-79
2022/09/14 07:35:22;;;;;;;3.60;1.55;;;16.60;99.90;;;;;;4914138;29;20536;-80
2022/09/14 07:37:49;;;;;;;6.10;1.60;;;16.70;99.90;;;;;;4931879;29;20540;-79
2022/09/14 07:40:15;;;;;;;3.67;1.50;;;16.90;99.90;;;;;;4932102;29;20039;-79
2022/09/14 07:42:40;;;;;;;5.47;1.45;;;16.90;99.90;;;;;;4918136;29;20098;-79
2022/09/14 07:45:06;;;;;;;3.65;1.38;;;16.90;99.90;;;;;;4918169;29;20069;-80
2022/09/14 07:47:35;;;;;;;3.63;1.30;;;17.00;99.90;;;;;;4919287;29;20039;-81
2022/09/14 07:50:01;;;;;;;3.85;1.45;;;17.10;99.90;;;;;;4908565;29;20047;-82
2022/09/14 07:52:27;;;;;;;5.28;1.58;;;17.10;99.90;;;;;;4935895;29;20119;-81
2022/09/14 07:54:52;;;;;;;3.67;1.40;;;17.10;99.90;;;;;;4918613;29;20047;-82
2022/09/14 07:57:18;;;;;;;6.07;1.30;;;17.20;99.90;;;;;;4916627;29;20499;-82
2022/09/14 07:59:44;;;;;;;4.93;1.42;;;17.30;99.90;;;;;;4929398;29;20035;-83
2022/09/14 08:02:10;;;;;;;3.85;1.38;;;17.40;99.90;;;;;;4906549;29;20460;-81
2022/09/14 08:04:39;;;;;;;8.05;1.73;;;17.40;99.90;;;;;;4922434;29;20039;-82
2022/09/14 08:07:06;;;;;;;9.50;1.17;;;17.40;99.90;;;;;;4909609;29;20066;-80
2022/09/14 08:09:32;;;;;;;5.65;1.13;;;17.40;99.90;;;;;;4933603;29;20500;-79
2022/09/14 08:12:02;;;;;;;4.40;1.30;;;17.50;99.90;;;;;;4935013;29;20480;-80
2022/09/14 08:14:27;;;;;;;3.90;1.10;;;17.60;99.90;;;;;;4921133;29;20040;-81
2022/09/14 08:16:53;;;;;;;5.88;1.20;;;17.50;99.90;;;;;;4930981;29;20085;-81
2022/09/14 08:19:19;;;;;;;7.15;1.45;;;17.50;99.90;;;;;;4935584;29;20330;-80
2022/09/14 08:21:57;;;;;;;7.50;1.40;;;17.60;99.90;;;;;;4934613;29;20054;-81
2022/09/14 08:24:42;;;;;;;4.50;1.30;;;17.60;99.90;;;;;;4921382;29;20063;-80
2022/09/14 08:27:18;;;;;;;7.85;1.35;;;17.60;99.90;;;;;;4869427;29;20055;-79
2022/09/14 08:29:43;;;;;;;7.13;1.83;;;17.60;99.90;;;;;;4875630;29;20088;-80
2022/09/14 08:32:15;;;;;;;7.32;1.23;;;17.70;99.90;;;;;;4886424;29;20039;-80
2022/09/14 08:38:28;;;;;;;8.43;1.40;;;17.60;99.90;;;;;;4929545;29;20499;-81
2022/09/14 08:41:22;;;;;;;4.75;1.40;;;17.60;99.90;;;;;;4931422;29;20048;-81
2022/09/14 08:43:49;;;;;;;3.65;1.20;;;17.80;99.90;;;;;;4898006;29;20048;-82
2022/09/14 08:46:35;;;;;;;5.20;1.33;;;17.10;99.90;;;;;;4891985;29;20032;-80
2022/09/14 08:49:58;;;;;;;3.22;1.20;;;17.90;99.90;;;;;;4900828;29;20032;-80
2022/09/14 08:52:57;;;;;;;7.40;1.45;;;17.80;99.90;;;;;;4905132;29;20050;-80
2022/09/14 08:55:47;;;;;;;5.75;1.30;;;18.00;99.90;;;;;;4923467;29;20047;-79
2022/09/14 08:58:42;;;;;;;4.35;1.20;;;18.10;99.90;;;;;;4930722;29;20042;-80
2022/09/14 09:01:32;;;;;;;;;;;;;;;;;;;;;
2022/09/14 09:04:30;;;;;;;4.38;1.20;;;18.10;99.90;;;;;;4934200;28;20050;-80
2022/09/14 09:07:19;;;;;;;5.05;1.30;;;18.10;99.90;;;;;;4917137;29;20042;-79
2022/09/14 09:09:52;;;;;;;5.32;1.20;;;18.60;99.90;;;;;;4931671;28;20047;-81
2022/09/14 09:12:44;;;;;;;4.53;1.20;;;18.50;99.90;;;;;;4937611;28;20039;-80
2022/09/14 09:15:20;;;;;;;5.90;1.10;;;18.70;99.90;;;;;;4948549;28;20078;-79
2022/09/14 09:17:51;;;;;;;4.68;1.38;;;18.90;99.90;;;;;;4934861;29;20567;-83
2022/09/14 09:20:22;;;;;;;4.97;1.83;;;19.00;99.90;;;;;;4936130;29;20078;-82
2022/09/14 09:22:54;;;;;;;9.15;1.50;;;18.90;99.90;;;;;;4907198;29;20042;-78
2022/09/14 09:25:25;;;;;;;2.08;0.85;;;18.60;99.90;;;;;;4934779;29;20500;-81
2022/09/14 09:28:01;;;;;;;4.80;1.10;;;18.70;99.90;;;;;;4921315;29;20050;-81
2022/09/14 09:30:28;;;;;;;3.50;1.10;;;18.60;99.90;;;;;;4926447;29;20031;-80
2022/09/14 09:32:56;;;;;;;3.75;1.10;;;18.70;99.90;;;;;;4938713;29;20388;-82
2022/09/14 09:35:23;;;;;;;2.78;1.05;;;18.90;99.90;;;;;;4925048;29;20046;-80
2022/09/14 09:37:49;;;;;;;8.48;1.23;;;19.20;99.90;;;;;;4946899;29;20044;-80
2022/09/14 09:40:40;;;;;;;3.97;1.10;;;19.40;99.90;;;;;;4937885;29;20046;-82
2022/09/14 09:43:12;;;;;;;6.95;1.10;;;19.00;99.90;;;;;;4927676;29;20039;-82
2022/09/14 09:46:00;;;;;;;3.55;0.95;;;19.20;99.90;;;;;;4943992;28;20035;-78
2022/09/14 09:48:41;;;;;;;5.00;1.10;;;19.30;99.90;;;;;;4935879;28;20066;-78
2022/09/14 09:51:14;;;;;;;6.25;2.00;;;19.00;99.90;;;;;;4912130;29;20178;-79
2022/09/14 09:53:58;;;;;;;3.25;0.85;;;18.90;99.90;;;;;;4934597;29;20071;-80
2022/09/14 09:56:30;;;;;;;6.85;1.25;;;18.80;99.90;;;;;;4937807;29;20050;-81
2022/09/14 09:58:55;;;;;;;2.53;1.35;;;18.80;99.90;;;;;;4932417;29;20477;-80
2022/09/14 10:01:29;;;;;;;3.97;0.82;;;18.80;99.90;;;;;;4919006;29;20047;-80
2022/09/14 10:04:16;;;;;;;4.70;1.00;;;18.60;99.90;;;;;;4913909;29;20043;-80
2022/09/14 10:06:48;;;;;;;5.53;1.25;;;18.60;99.90;;;;;;4916810;28;20044;-80
2022/09/14 10:09:19;;;;;;;3.22;1.27;;;18.60;99.90;;;;;;4935994;29;20035;-81
2022/09/14 10:11:55;;;;;;;4.00;1.48;;;18.70;99.90;;;;;;4924502;29;20031;-80
2022/09/14 10:14:40;;;;;;;2.38;1.17;;;18.70;99.90;;;;;;4923179;29;20109;-81
2022/09/14 10:17:21;;;;;;;4.32;1.33;;;18.80;99.90;;;;;;4914946;29;20123;-81
2022/09/14 10:19:48;;;;;;;3.50;0.95;;;18.90;99.90;;;;;;4935336;29;20246;-84
2022/09/14 10:22:19;;;;;;;3.13;1.00;;;19.00;99.90;;;;;;4921238;29;20081;-80
2022/09/14 10:25:24;;;;;;;9.93;2.25;;;19.00;99.90;;;;;;4952895;29;20519;-83
2022/09/14 10:27:55;;;;;;;3.88;1.45;;;19.30;99.90;;;;;;4921498;28;20038;-81
2022/09/14 10:30:59;;;;;;;4.00;1.00;;;19.40;99.90;;;;;;4938976;28;20181;-80
2022/09/14 10:33:25;;;;;;;3.97;1.00;;;19.50;99.90;;;;;;4905370;29;20051;-80
2022/09/14 10:36:00;;;;;;;3.92;1.80;;;19.50;99.90;;;;;;4924906;29;20070;-81
2022/09/14 10:38:40;;;;;;;4.32;1.50;;;19.40;99.90;;;;;;4903709;28;20043;-79
2022/09/14 10:41:12;;;;;;;4.57;1.23;;;19.40;99.90;;;;;;4937434;29;20083;-80
2022/09/14 10:44:05;;;;;;;2.72;1.00;;;19.30;99.90;;;;;;4917722;29;20147;-80
2022/09/14 10:46:58;;;;;;;9.77;1.20;;;19.30;99.90;;;;;;4922688;29;20055;-79
2022/09/14 10:49:27;;;;;;;2.63;0.95;;;19.40;99.90;;;;;;4929937;29;20047;-79
2022/09/14 10:52:43;;;;;;;3.03;1.10;;;19.60;99.90;;;;;;4952777;28;20133;-80
2022/09/14 10:55:23;;;;;;;4.28;1.45;;;19.40;99.90;;;;;;4868398;29;20201;-79
2022/09/14 10:58:11;;;;;;;3.53;1.10;;;19.50;99.90;;;;;;4936982;29;20051;-81
2022/09/14 11:01:01;;;;;;;4.63;1.10;;;19.60;99.90;;;;;;4936554;29;20043;-81
2022/09/14 11:03:45;;;;;;;3.90;1.05;;;19.70;99.90;;;;;;4935208;29;20512;-80
2022/09/14 11:06:29;;;;;;;2.75;1.02;;;19.60;99.90;;;;;;4949610;28;20177;-79
2022/09/14 11:09:04;;;;;;;3.43;0.90;;;19.60;99.90;;;;;;4951395;28;20052;-81
2022/09/14 11:11:48;;;;;;;6.72;1.60;;;19.80;99.90;;;;;;4954680;28;21329;-81
2022/09/14 11:14:32;;;;;;;5.53;1.33;;;20.00;99.90;;;;;;4935745;29;20105;-79
2022/09/14 11:17:33;;;;;;;5.18;1.27;;;20.10;99.90;;;;;;4929255;29;20640;-79
2022/09/14 11:20:24;;;;;;;4.95;1.00;;;20.00;99.90;;;;;;4920799;29;20098;-79
2022/09/14 11:23:12;;;;;;;4.22;1.20;;;20.10;99.90;;;;;;4917605;29;20083;-79
2022/09/14 11:25:55;;;;;;;3.35;1.02;;;20.10;99.90;;;;;;4901695;29;20461;-79
2022/09/14 11:29:04;;;;;;;2.88;1.15;;;20.50;99.90;;;;;;4942280;29;20547;-81
2022/09/14 11:31:56;;;;;;;8.95;1.30;;;20.40;99.90;;;;;;4930057;29;20110;-80
2022/09/14 11:34:35;;;;;;;3.45;1.00;;;20.50;99.90;;;;;;4920000;29;20042;-80
2022/09/14 11:37:17;;;;;;;9.68;1.80;;;20.60;99.90;;;;;;4919240;29;20051;-80
2022/09/14 11:40:30;;;;;;;3.70;1.30;;;20.70;99.90;;;;;;4927610;29;20437;-81
2022/09/14 11:43:18;;;;;;;3.42;0.98;;;20.50;99.90;;;;;;4933750;29;20098;-81
2022/09/14 11:46:04;;;;;;;3.83;1.27;;;20.60;99.90;;;;;;4952912;29;20054;-81
2022/09/14 11:48:39;;;;;;;5.03;1.10;;;20.60;99.90;;;;;;4924821;29;20118;-81
2022/09/14 11:51:42;;;;;;;3.83;1.38;;;21.00;99.90;;;;;;4901129;29;20043;-79
2022/09/14 11:54:17;;;;;;;2.25;1.00;;;20.70;99.90;;;;;;4915393;29;20066;-81
2022/09/14 11:56:57;;;;;;;4.65;1.20;;;20.50;99.90;;;;;;4901223;29;20610;-82
2022/09/14 11:59:38;;;;;;;4.68;1.35;;;20.40;99.90;;;;;;4948415;28;20039;-81
2022/09/14 12:02:26;;;;;;;6.32;1.65;;;20.30;99.90;;;;;;4915701;29;20051;-78
2022/09/14 12:05:04;;;;;;;7.88;1.45;;;20.30;99.90;;;;;;4900901;29;20051;-77
2022/09/14 12:07:45;;;;;;;5.32;1.35;;;20.40;99.90;;;;;;4899524;29;20619;-79
2022/09/14 12:10:14;;;;;;;4.88;1.23;;;20.60;99.90;;;;;;4900910;29;20066;-81
2022/09/14 12:12:55;;;;;;;5.18;1.40;;;20.60;99.90;;;;;;4903232;29;20040;-81
2022/09/14 12:15:24;;;;;;;4.32;1.52;;;20.40;99.90;;;;;;4916213;29;20046;-79
2022/09/14 12:18:12;;;;;;;4.53;1.38;;;20.60;99.90;;;;;;4914694;29;20365;-79
2022/09/14 12:20:45;;;;;;;3.63;1.20;;;20.50;99.90;;;;;;4916820;29;20126;-81
2022/09/14 12:23:37;;;;;;;2.13;1.03;;;20.50;99.90;;;;;;4935810;29;20484;-80
2022/09/14 12:26:08;;;;;;;2.88;0.90;;;20.60;99.90;;;;;;4916109;29;20299;-81
2022/09/14 12:28:37;;;;;;;2.90;1.00;;;20.50;99.90;;;;;;4921332;29;20424;-80
2022/09/14 12:31:03;;;;;;;8.40;1.35;;;20.50;99.90;;;;;;4913799;29;20392;-78
2022/09/14 12:33:32;;;;;;;2.55;1.17;;;20.30;99.90;;;;;;4924566;29;20043;-80
2022/09/14 12:35:59;;;;;;;4.07;1.30;;;20.30;99.90;;;;;;4919778;29;20065;-79
2022/09/14 12:39:01;;;;;;;4.07;0.90;;;20.20;99.90;;;;;;4918475;29;20047;-81
2022/09/14 12:41:28;;;;;;;4.43;1.63;;;20.10;99.90;;;;;;4947339;29;20070;-80
2022/09/14 12:43:54;;;;;;;5.65;1.23;;;20.40;99.90;;;;;;4921157;29;20043;-81
2022/09/14 12:46:20;;;;;;;4.32;1.05;;;20.50;99.90;;;;;;4938574;28;20047;-81
2022/09/14 12:48:46;;;;;;;4.22;1.10;;;20.40;99.90;;;;;;4938667;29;20051;-80
2022/09/14 12:51:30;;;;;;;2.05;1.08;;;20.30;99.90;;;;;;4915607;29;20054;-81
2022/09/14 12:54:08;;;;;;;5.28;1.38;;;20.40;99.90;;;;;;4927655;29;20035;-80
2022/09/14 12:56:41;;;;;;;4.70;1.30;;;20.40;99.90;;;;;;4919776;29;20059;-81
2022/09/14 12:59:25;;;;;;;3.15;1.23;;;20.30;99.90;;;;;;4938100;29;20732;-78
2022/09/14 13:02:10;;;;;;;;;;;20.20;99.90;;;;;;4930572;29;20043;-80
2022/09/14 13:04:38;;;;;;;4.10;1.15;;;20.00;99.90;;;;;;4924894;29;19973;-79
2022/09/14 13:07:12;;;;;;;5.15;1.13;;;20.00;99.90;;;;;;4954288;29;20471;-80
2022/09/14 13:09:54;;;;;;;4.63;1.20;;;19.90;99.90;;;;;;4937103;29;20133;-78
2022/09/14 13:12:26;;;;;;;3.08;1.00;;;20.00;99.90;;;;;;4938704;29;20122;-80
2022/09/14 13:14:59;;;;;;;2.08;1.30;;;19.90;99.90;;;;;;4922482;29;20205;-79
2022/09/14 13:17:25;;;;;;;3.58;1.25;;;19.70;99.90;;;;;;4953447;29;20519;-78
2022/09/14 13:19:59;;;;;;;3.20;1.10;;;19.60;99.90;;;;;;4937180;29;20035;-80
2022/09/14 13:22:30;;;;;;;4.72;1.10;;;19.40;99.90;;;;;;4934786;29;20046;-80
2022/09/14 13:24:57;;;;;;;4.13;1.30;;;19.30;99.90;;;;;;4922596;29;20448;-79
2022/09/14 13:27:25;;;;;;;3.65;1.10;;;19.10;99.90;;;;;;4937899;29;20376;-79
2022/09/14 13:30:18;;;;;;;4.10;0.88;;;19.20;99.90;;;;;;4954195;29;20039;-79
2022/09/14 13:32:48;;;;;;;4.85;1.60;;;19.20;99.90;;;;;;4927981;29;20039;-79
2022/09/14 13:35:25;;;;;;;3.78;1.08;;;19.20;99.90;;;;;;4918246;29;20130;-78
2022/09/14 13:37:51;;;;;;;3.47;0.90;;;19.00;99.90;;;;;;4902974;29;20048;-80
2022/09/14 13:40:22;;;;;;;4.18;1.40;;;18.90;99.90;;;;;;4922310;29;20085;-79
2022/09/14 13:42:48;;;;;;;3.90;1.17;;;18.80;99.90;;;;;;4929101;29;20039;-77
2022/09/14 13:45:14;;;;;;;4.70;1.13;;;18.80;99.90;;;;;;4927647;29;20071;-78
2022/09/14 13:47:40;;;;;;;5.70;1.42;;;18.70;99.90;;;;;;4921122;29;20082;-80
2022/09/14 13:50:07;;;;;;;4.05;1.52;;;18.70;99.90;;;;;;4921741;29;20076;-80
2022/09/14 13:52:38;;;;;;;3.88;1.10;;;19.00;99.90;;;;;;4918234;29;20082;-80
2022/09/14 13:55:21;;;;;;;6.35;1.15;;;19.20;99.90;;;;;;4903668;29;20051;-79
2022/09/14 13:58:05;;;;;;;4.50;1.55;;;19.70;99.90;;;;;;4934095;29;20143;-79
2022/09/14 14:00:33;;;;;;;2.65;0.82;;;19.90;99.90;;;;;;4917411;29;20106;-81
2022/09/14 14:03:03;;;;;;;3.90;1.05;;;19.90;99.90;;;;;;4921952;29;20039;-81
2022/09/14 14:06:59;;;;;;;;;;;;;;;;;;;;;
2022/09/14 14:09:11;;;;;;;5.10;1.20;;;19.70;99.90;;;;;;4925772;29;20421;-81
2022/09/14 14:11:37;;;;;;;4.28;1.10;;;19.40;99.90;;;;;;4916425;29;20036;-80
2022/09/14 14:14:30;;;;;;;4.65;1.23;;;19.30;99.90;;;;;;4908824;29;20048;-79